createdAt,value
2023-04-05T00:01:12.537Z,12.70
2023-04-05T00:06:16.732Z,15.17
2023-04-05T00:11:19.101Z,15.17
2023-04-05T00:16:22.011Z,14.27
2023-04-05T00:21:25.286Z,13.00
2023-04-05T00:26:28.116Z,13.73
2023-04-05T00:31:33.073Z,14.73
2023-04-05T00:36:36.281Z,10.17
2023-04-05T00:41:38.827Z,14.10
2023-04-05T00:46:42.294Z,10.73
2023-04-05T00:51:45.886Z,10.43
2023-04-05T00:56:48.894Z,13.03
2023-04-05T01:02:13.498Z,14.33
2023-04-05T01:07:29.126Z,11.33
2023-04-05T01:12:34.209Z,16.10
2023-04-05T01:17:39.453Z,12.87
2023-04-05T01:22:52.102Z,15.40
2023-04-05T01:27:58.074Z,16.33
2023-04-05T01:33:08.819Z,14.23
2023-04-05T01:38:18.376Z,15.27
2023-04-05T01:43:20.967Z,14.70
2023-04-05T01:48:23.409Z,15.90
2023-04-05T01:53:26.419Z,15.30
2023-04-05T01:58:29.174Z,12.80
2023-04-05T02:03:32.005Z,13.03
2023-04-05T02:08:34.762Z,14.47
2023-04-05T02:13:37.192Z,14.77
2023-04-05T02:18:39.993Z,16.00
2023-04-05T02:23:44.216Z,15.17
2023-04-05T02:28:47.268Z,15.60
2023-04-05T02:33:49.826Z,13.50
2023-04-05T02:38:52.347Z,9.50
2023-04-05T02:43:54.766Z,12.50
2023-04-05T02:48:57.373Z,14.53
2023-04-05T02:54:03.998Z,13.03
2023-04-05T02:59:09.452Z,14.63
2023-04-05T03:04:13.248Z,12.83
2023-04-05T03:09:16.970Z,10.80
2023-04-05T03:14:21.833Z,11.73
2023-04-05T03:19:26.366Z,10.70
2023-04-05T03:24:36.048Z,14.10
2023-04-05T03:29:43.021Z,14.30
2023-04-05T03:34:52.159Z,11.53
2023-04-05T03:39:57.162Z,10.23
2023-04-05T03:45:00.055Z,14.47
2023-04-05T03:50:03.846Z,11.27
2023-04-05T03:55:08.195Z,13.47
2023-04-05T04:00:14.939Z,11.73
2023-04-05T04:05:18.205Z,12.57
2023-04-05T04:10:24.850Z,10.87
2023-04-05T04:15:32.220Z,14.83
2023-04-05T04:20:45.936Z,13.53
2023-04-05T04:26:06.118Z,16.57
2023-04-05T04:31:33.973Z,12.83
2023-04-05T04:37:01.521Z,13.60
2023-04-05T04:42:19.974Z,12.57
2023-04-05T04:47:49.857Z,17.57
2023-04-05T04:53:23.976Z,19.10
2023-04-05T04:58:26.865Z,17.87
2023-04-05T05:03:39.499Z,22.03
2023-04-05T05:08:41.946Z,22.50
2023-04-05T05:13:45.689Z,20.23
2023-04-05T05:18:55.640Z,20.77
2023-04-05T05:24:01.403Z,23.10
2023-04-05T05:29:04.489Z,22.77
2023-04-05T05:34:10.259Z,19.97
2023-04-05T05:39:16.082Z,21.43
2023-04-05T05:44:18.708Z,23.23
2023-04-05T05:49:21.983Z,24.93
2023-04-05T05:54:25.926Z,29.03
2023-04-05T05:59:29.053Z,41.53
2023-04-05T06:04:31.697Z,49.63
2023-04-05T06:09:35.584Z,51.83
2023-04-05T06:14:38.065Z,44.70
2023-04-05T06:19:40.622Z,34.00
2023-04-05T06:24:43.129Z,29.17
2023-04-05T06:29:45.755Z,13.60
2023-04-05T06:34:49.223Z,16.43
2023-04-05T06:39:51.793Z,15.63
2023-04-05T06:44:54.349Z,11.50
2023-04-05T06:49:56.853Z,12.47
2023-04-05T06:54:59.432Z,10.43
2023-04-05T07:00:02.224Z,9.67
2023-04-05T07:05:06.184Z,7.10
2023-04-05T07:10:09.468Z,7.70
2023-04-05T07:15:12.405Z,6.80
2023-04-05T07:20:16.280Z,7.47
2023-04-05T07:25:18.929Z,7.50
2023-04-05T07:30:21.498Z,7.67
2023-04-05T07:35:24.268Z,7.07
2023-04-05T07:40:27.873Z,5.67
2023-04-05T07:45:30.401Z,7.47
2023-04-05T07:50:34.451Z,7.37
2023-04-05T07:55:40.106Z,7.30
2023-04-05T08:00:42.839Z,7.77
2023-04-05T08:05:45.557Z,7.57
2023-04-05T08:10:48.092Z,5.93
2023-04-05T08:15:51.156Z,10.43
2023-04-05T08:20:57.170Z,6.03
2023-04-05T08:26:00.682Z,7.83
2023-04-05T08:31:03.294Z,6.77
2023-04-05T08:36:06.907Z,5.60
2023-04-05T08:41:19.825Z,5.40
2023-04-05T08:46:23.081Z,6.10
2023-04-05T08:51:26.414Z,5.53
2023-04-05T08:56:36.175Z,6.47
2023-04-05T09:01:42.216Z,6.47
2023-04-05T09:06:46.249Z,6.30
2023-04-05T09:11:49.020Z,6.73
2023-04-05T09:16:52.014Z,7.20
2023-04-05T09:22:07.905Z,9.73
2023-04-05T09:27:22.311Z,8.87
2023-04-05T09:32:37.871Z,7.17
2023-04-05T09:37:53.464Z,7.00
2023-04-05T09:42:57.167Z,8.23
2023-04-05T09:47:59.598Z,6.87
2023-04-05T09:53:18.854Z,4.87
2023-04-05T09:58:27.574Z,7.57
2023-04-05T10:03:30.842Z,5.40
2023-04-05T10:08:33.348Z,7.77
2023-04-05T10:13:36.334Z,5.80
2023-04-05T10:18:49.422Z,6.10
2023-04-05T10:24:18.321Z,4.90
2023-04-05T10:29:29.529Z,5.33
2023-04-05T10:34:43.580Z,8.77
2023-04-05T10:39:47.443Z,7.50
2023-04-05T10:44:55.728Z,7.77
2023-04-05T10:50:03.820Z,6.67
2023-04-05T10:55:08.646Z,6.33
2023-04-05T11:00:12.158Z,7.30
2023-04-05T11:05:37.634Z,5.43
2023-04-05T11:10:41.255Z,6.07
2023-04-05T11:15:43.986Z,5.33
2023-04-05T11:21:05.592Z,7.23
2023-04-05T11:26:08.302Z,7.23
2023-04-05T11:31:26.928Z,7.87
2023-04-05T11:36:36.991Z,6.83
2023-04-05T11:41:39.525Z,5.27
2023-04-05T11:46:42.961Z,7.00
2023-04-05T11:51:49.048Z,5.20
2023-04-05T11:56:52.297Z,6.67
2023-04-05T12:02:07.691Z,6.33
2023-04-05T12:07:11.328Z,7.10
2023-04-05T12:12:17.376Z,5.23
2023-04-05T12:17:37.066Z,7.23
2023-04-05T12:22:41.884Z,6.93
2023-04-05T12:27:44.877Z,7.17
2023-04-05T12:32:50.701Z,6.53
2023-04-05T12:37:53.256Z,6.50
2023-04-05T12:43:03.184Z,5.50
2023-04-05T12:48:13.618Z,6.27
2023-04-05T12:53:21.005Z,6.93
2023-04-05T12:58:33.647Z,5.57
2023-04-05T13:03:36.339Z,6.13
2023-04-05T13:08:38.800Z,4.20
2023-04-05T13:13:41.429Z,4.07
2023-04-05T13:18:44.432Z,4.87
2023-04-05T13:23:46.973Z,4.63
2023-04-05T13:28:49.511Z,4.80
2023-04-05T13:33:52.176Z,5.17
2023-04-05T13:38:54.661Z,5.00
2023-04-05T13:44:01.121Z,5.37
2023-04-05T13:49:04.631Z,8.47
2023-04-05T13:54:11.685Z,5.93
2023-04-05T13:59:17.363Z,5.50
2023-04-05T14:04:20.355Z,5.67
2023-04-05T14:09:22.910Z,5.93
2023-04-05T14:14:25.518Z,6.13
2023-04-05T14:19:27.967Z,5.67
2023-04-05T14:24:30.768Z,4.77
2023-04-05T14:29:33.527Z,5.43
2023-04-05T14:34:36.518Z,4.80
2023-04-05T14:39:38.972Z,5.23
2023-04-05T14:44:41.474Z,4.73
2023-04-05T14:49:44.041Z,4.90
2023-04-05T14:54:46.620Z,4.60
2023-04-05T14:59:49.163Z,4.67
2023-04-05T15:04:51.641Z,5.10
2023-04-05T15:09:54.226Z,3.87
2023-04-05T15:14:57.434Z,3.80
2023-04-05T15:19:59.935Z,5.07
2023-04-05T15:25:02.690Z,4.60
2023-04-05T15:30:06.179Z,5.47
2023-04-05T15:35:09.182Z,4.77
2023-04-05T15:40:11.945Z,6.90
2023-04-05T15:45:14.601Z,7.17
2023-04-05T15:50:17.219Z,5.10
2023-04-05T15:55:19.881Z,4.90
2023-04-05T16:00:22.950Z,7.23
2023-04-05T16:05:25.973Z,3.87
2023-04-05T16:10:28.399Z,4.40
2023-04-05T16:15:32.587Z,4.67
2023-04-05T16:20:35.159Z,4.80
2023-04-05T16:25:37.903Z,15.87
2023-04-05T16:30:41.654Z,9.57
2023-04-05T16:35:44.100Z,10.30
2023-04-05T16:40:46.758Z,11.53
2023-04-05T16:45:49.455Z,9.90
2023-04-05T16:50:52.613Z,17.03
2023-04-05T16:55:55.858Z,17.23
2023-04-05T17:01:00.259Z,32.07
2023-04-05T17:06:03.371Z,22.27
2023-04-05T17:11:06.904Z,25.57
2023-04-05T17:16:09.542Z,19.97
2023-04-05T17:21:12.563Z,32.17
2023-04-05T17:26:15.499Z,30.53
2023-04-05T17:31:19.202Z,19.10
2023-04-05T17:36:21.825Z,12.07
2023-04-05T17:41:24.470Z,18.10
2023-04-05T17:46:39.678Z,15.67
2023-04-05T17:51:44.026Z,11.90
2023-04-05T17:56:46.605Z,10.07
2023-04-05T18:01:53.896Z,8.87
2023-04-05T18:06:56.974Z,9.97
2023-04-05T18:11:59.748Z,11.27
2023-04-05T18:17:02.602Z,11.77
2023-04-05T18:22:05.109Z,11.67
2023-04-05T18:27:07.730Z,11.67
2023-04-05T18:32:10.920Z,12.13
2023-04-05T18:37:13.581Z,6.03
2023-04-05T18:42:15.996Z,15.70
2023-04-05T18:47:18.473Z,20.10
2023-04-05T18:52:26.063Z,20.07
2023-04-05T18:57:28.825Z,20.30
2023-04-05T19:02:31.517Z,19.50
2023-04-05T19:07:34.056Z,16.13
2023-04-05T19:12:36.644Z,16.90
2023-04-05T19:17:39.080Z,14.07
2023-04-05T19:22:41.570Z,11.73
2023-04-05T19:27:44.089Z,13.33
2023-04-05T19:32:46.605Z,10.57
2023-04-05T19:37:49.053Z,9.67
2023-04-05T19:42:52.474Z,10.27
2023-04-05T19:47:56.509Z,11.00
2023-04-05T19:52:59.653Z,9.27
2023-04-05T19:58:07.452Z,9.83
2023-04-05T20:03:32.231Z,8.43
2023-04-05T20:08:37.793Z,8.10
2023-04-05T20:13:56.183Z,9.47
2023-04-05T20:19:05.750Z,9.67
2023-04-05T20:24:09.831Z,12.73
2023-04-05T20:29:17.572Z,14.90
2023-04-05T20:34:32.119Z,14.53
2023-04-05T20:39:34.906Z,16.23
2023-04-05T20:44:37.887Z,16.17
2023-04-05T20:49:40.376Z,17.27
2023-04-05T20:54:42.914Z,19.70
2023-04-05T20:59:45.947Z,14.13
2023-04-05T21:04:50.501Z,15.33
2023-04-05T21:09:53.069Z,11.73
2023-04-05T21:14:55.839Z,10.27
2023-04-05T21:19:58.502Z,13.53
2023-04-05T21:25:00.978Z,17.03
2023-04-05T21:30:03.920Z,11.20
2023-04-05T21:35:06.836Z,14.03
2023-04-05T21:40:09.938Z,15.20
2023-04-05T21:45:13.087Z,11.17
2023-04-05T21:50:15.710Z,12.67
2023-04-05T21:55:18.225Z,10.70
2023-04-05T22:00:20.867Z,10.83
2023-04-05T22:05:36.415Z,11.90
2023-04-05T22:10:40.299Z,12.43
2023-04-05T22:15:44.173Z,10.73
2023-04-05T22:20:46.708Z,12.93
2023-04-05T22:25:49.216Z,12.53
2023-04-05T22:30:51.764Z,14.40
2023-04-05T22:35:54.272Z,13.83
2023-04-05T22:40:56.716Z,16.57
2023-04-05T22:45:59.201Z,14.67
2023-04-05T22:51:01.675Z,9.00
2023-04-05T22:56:04.632Z,13.20
2023-04-05T23:01:08.440Z,12.33
2023-04-05T23:06:11.110Z,12.60
2023-04-05T23:11:13.682Z,9.47
2023-04-05T23:16:17.134Z,11.30
2023-04-05T23:21:19.621Z,13.53
2023-04-05T23:26:21.990Z,13.83
2023-04-05T23:31:24.592Z,11.53
2023-04-05T23:36:27.870Z,10.70
2023-04-05T23:41:30.474Z,8.13
2023-04-05T23:46:33.787Z,11.03
2023-04-05T23:51:36.529Z,8.37
2023-04-05T23:56:39.012Z,11.50
